Saint Croix Falls, WI

6:28 PM CDT on May 30, 2015 (GMT -0500)
WIDOT | | Change Station
CLOSE
Current Station
Personal Weather Station
Location: Saint Croix Falls, WI
Elevation: 1190 ft
Nearby Weather Stations
Active Advisory: Frost Advisory

Elev 1190 ft 45.40 °N, 92.59 °W | Updated 25 minutes ago

Clear
Clear
60 °F
Feels Like 60 °F
N
6
Wind Variable Wind from NE
Gusts 14.0 mph

Today
High -- | Low -- °F
--% Chance of Precip.
Yesterday
High -- | Low -- °F
Precip. -- in
5:26 AM 8:49 PM
Waxing Gibbous, 92% visible
Pressure 30.26 in
Visibility 10.0 miles
Clouds Clear
Dew Point 38 °F
Humidity 44%
Rainfall in
Snow Depth Not available.
UV 2 out of 12
Pollen 8.10 out of 12
Air Quality Not available.
Flu Activity Sporadic
METAR KOEO 302315Z AUTO 03007KT 10SM CLR 16/04 A3026 RMK AO2 T01600042

More Conditions Fewer Conditions

Pressure 30.26 in
Visibility 10.0 miles
Clouds Clear
Dew Point 38 °F
Humidity 44%
Rainfall in
Snow Depth Not available.
UV 2 out of 12
Pollen 8.10 out of 12
Air Quality Not available.
Flu Activity Sporadic
METAR KOEO 302315Z AUTO 03007KT 10SM CLR 16/04 A3026 RMK AO2 T01600042

More Conditions Fewer Conditions

10-Day Weather Forecast

Almanac

Astronomy

May. 30, 2015 Rise Set
Actual Time
Civil Twilight
Nautical Twilight
Astronomical Twilight
Moon
Length of Visible Light
Length of Day
Tomorrow will be .
, % of the Moon is Illuminated

Today's Extremes

State Highs State Lows

Community

WunderPhotos

Upload Photos

1,825,551 photos uploaded!

WunderBlogs® & News

Nearby

Air Quality

  Air Quality AQ Index Pollutant
Not available.

Snow Depth

Station Depth Elevation

Earthquake Activity

City Distance Mag. Time & Date
Minimum magnitude displayed is 2.5.

Coastal Water Temperatures

Place Temperature

Stations

Nearby Weather Stations

Station Location Temp. Windchill Dew Point Humidity Wind Precip. Elev Updated Type
                   
Frost Advisory
Statement as of 2:35 PM CDT on May 30, 2015

... Frost advisory in effect from 1 am to 8 am CDT Sunday...

The National Weather Service in Twin Cities/Chanhassen has issued
a frost advisory... which is in effect from 1 am to 8 am CDT
Sunday.

* Temperature... lows between 32 and 36.

* Impacts... temperature sensitive outdoor vegetation may be
damaged or killed if proper precautions are not taken.

Precautionary/preparedness actions...

A frost advisory means that frost is possible. Sensitive outdoor
plants may be killed if left uncovered.